Aérodrome :
LOGIN :

S'inscrire | Disclaimer

   EN    FR    IT 

 










Légende :    VFR   VFR Marginal   IFR   IFR Intensif   IFR Très Intensif
Visi : 
Plafond : 
>= 8 km
>= 3000ft
5 à 8 km
1000 à 3000 ft
1500m à 5 km
500 à 1000 ft
800 à 1500m
200 à 500 ft
< 800m
< 200 ft
Symboles :   Orages  Brouillard  Fortes neiges  Fortes précipitations  Vent > 20 kt
SIGMETs :   Divers  Orages  Givrage  Turbulence  Onde Orograph.  Cendres Volcan.







- Altitude de l'aérodrome : 844 ft
- Code IATA : OSR


LKMT - Ostrava-Mosnov

DERNIER METAR :
  • 152230Z 22004KT CAVOK 08/04 Q1021 NOSIG

METARs EXPIRÉS :
  • 152200Z 22004KT CAVOK 08/03 Q1021 NOSIG
  • 152130Z 23002KT CAVOK 09/04 Q1021 NOSIG
  • 152100Z VRB02KT CAVOK 09/04 Q1021 NOSIG
  • 152030Z 21003KT 130V240 CAVOK 10/04 Q1021 NOSIG
  • 152000Z 21005KT CAVOK 11/04 Q1021 NOSIG

TAF TAF LKMT
Valide du 15 à 18h jusqu'au 17 à 00h UTC


151700Z 1518/1700 VRB02KT CAVOK
TEMPO 1608/1616 22008KT
Pas de NOTAMs connus pour ce terrain.



MET'MAP, la Météo Aéronautique d'un coup d'oeil ! - Copyright ORBIFLY Décembre 2007 - Disclaimer

ORBIFLY MET'MAP TEAM :

Programmation & Développement : Alexandra Zaïnal
Conception & Développement : Baudouin d'Aumeries
Co-Programmation & Développement : Marc-Olivier Méhu
Soutien technique & logistique : Manuel Goepfert

Contact : metmap@orbifly.com




SOURCES & CREDITS :

   NOAA